sensor_id;sensor_type;location;lat;lon;timestamp;P1;durP1;ratioP1;P2;durP2;ratioP2
53674;SDS011;39574;50.534;8.500;2024-03-06T00:02:20;23.8;;;12.3;;
53674;SDS011;39574;50.534;8.500;2024-03-06T00:07:19;25.0;;;13.3;;
53674;SDS011;39574;50.534;8.500;2024-03-06T00:12:18;23.5;;;12.9;;
53674;SDS011;39574;50.534;8.500;2024-03-06T00:17:21;21.9;;;12.0;;
53674;SDS011;39574;50.534;8.500;2024-03-06T00:22:16;20.0;;;10.9;;
53674;SDS011;39574;50.534;8.500;2024-03-06T00:27:15;19.5;;;10.6;;
53674;SDS011;39574;50.534;8.500;2024-03-06T00:32:14;20.4;;;10.7;;
53674;SDS011;39574;50.534;8.500;2024-03-06T00:37:13;20.2;;;10.6;;
53674;SDS011;39574;50.534;8.500;2024-03-06T00:47:16;19.4;;;10.4;;
53674;SDS011;39574;50.534;8.500;2024-03-06T00:52:10;18.8;;;10.2;;
53674;SDS011;39574;50.534;8.500;2024-03-06T01:02:08;19.5;;;10.2;;
53674;SDS011;39574;50.534;8.500;2024-03-06T01:07:07;19.1;;;10.1;;
53674;SDS011;39574;50.534;8.500;2024-03-06T01:12:06;19.4;;;10.2;;
53674;SDS011;39574;50.534;8.500;2024-03-06T01:17:05;20.3;;;10.2;;
53674;SDS011;39574;50.534;8.500;2024-03-06T01:22:07;20.8;;;10.5;;
53674;SDS011;39574;50.534;8.500;2024-03-06T01:27:03;19.5;;;10.4;;
53674;SDS011;39574;50.534;8.500;2024-03-06T01:32:03;18.4;;;10.3;;
53674;SDS011;39574;50.534;8.500;2024-03-06T01:37:01;17.8;;;9.8;;
53674;SDS011;39574;50.534;8.500;2024-03-06T01:42:00;16.9;;;9.3;;
53674;SDS011;39574;50.534;8.500;2024-03-06T01:46:59;17.1;;;9.1;;
53674;SDS011;39574;50.534;8.500;2024-03-06T01:51:58;17.7;;;9.0;;
53674;SDS011;39574;50.534;8.500;2024-03-06T01:56:58;18.2;;;9.3;;
53674;SDS011;39574;50.534;8.500;2024-03-06T02:01:56;19.5;;;10.0;;
53674;SDS011;39574;50.534;8.500;2024-03-06T02:06:55;19.6;;;10.2;;
53674;SDS011;39574;50.534;8.500;2024-03-06T02:11:55;18.9;;;10.0;;
53674;SDS011;39574;50.534;8.500;2024-03-06T02:16:53;19.3;;;10.3;;
53674;SDS011;39574;50.534;8.500;2024-03-06T02:21:52;19.3;;;10.3;;
53674;SDS011;39574;50.534;8.500;2024-03-06T02:26:52;19.4;;;10.2;;
53674;SDS011;39574;50.534;8.500;2024-03-06T02:31:51;20.2;;;10.7;;
53674;SDS011;39574;50.534;8.500;2024-03-06T02:36:50;20.2;;;10.5;;
53674;SDS011;39574;50.534;8.500;2024-03-06T02:41:48;20.4;;;10.4;;
53674;SDS011;39574;50.534;8.500;2024-03-06T02:46:47;20.1;;;10.4;;
53674;SDS011;39574;50.534;8.500;2024-03-06T02:51:47;22.0;;;11.2;;
53674;SDS011;39574;50.534;8.500;2024-03-06T02:56:45;21.1;;;10.8;;
53674;SDS011;39574;50.534;8.500;2024-03-06T03:01:45;20.2;;;10.6;;
53674;SDS011;39574;50.534;8.500;2024-03-06T03:06:46;21.0;;;10.8;;
53674;SDS011;39574;50.534;8.500;2024-03-06T03:11:43;19.8;;;10.4;;
53674;SDS011;39574;50.534;8.500;2024-03-06T03:16:41;19.4;;;10.4;;
53674;SDS011;39574;50.534;8.500;2024-03-06T03:21:42;19.4;;;10.3;;
53674;SDS011;39574;50.534;8.500;2024-03-06T03:26:40;18.6;;;9.9;;
53674;SDS011;39574;50.534;8.500;2024-03-06T03:31:43;19.5;;;10.4;;
53674;SDS011;39574;50.534;8.500;2024-03-06T03:36:39;18.8;;;10.2;;
53674;SDS011;39574;50.534;8.500;2024-03-06T03:41:37;18.8;;;10.1;;
53674;SDS011;39574;50.534;8.500;2024-03-06T03:46:36;18.7;;;10.0;;
53674;SDS011;39574;50.534;8.500;2024-03-06T03:51:35;18.6;;;9.9;;
53674;SDS011;39574;50.534;8.500;2024-03-06T03:56:34;18.9;;;10.0;;
53674;SDS011;39574;50.534;8.500;2024-03-06T04:01:32;19.4;;;10.5;;
53674;SDS011;39574;50.534;8.500;2024-03-06T04:06:32;21.1;;;10.8;;
53674;SDS011;39574;50.534;8.500;2024-03-06T04:11:31;22.7;;;10.9;;
53674;SDS011;39574;50.534;8.500;2024-03-06T04:16:30;20.7;;;10.4;;
53674;SDS011;39574;50.534;8.500;2024-03-06T04:21:33;19.5;;;10.2;;
53674;SDS011;39574;50.534;8.500;2024-03-06T04:26:27;18.5;;;9.9;;
53674;SDS011;39574;50.534;8.500;2024-03-06T04:31:27;18.1;;;9.8;;
53674;SDS011;39574;50.534;8.500;2024-03-06T04:36:26;18.0;;;9.8;;
53674;SDS011;39574;50.534;8.500;2024-03-06T04:41:24;17.4;;;9.4;;
53674;SDS011;39574;50.534;8.500;2024-03-06T04:46:25;18.0;;;9.6;;
53674;SDS011;39574;50.534;8.500;2024-03-06T04:51:23;22.5;;;11.8;;
53674;SDS011;39574;50.534;8.500;2024-03-06T04:56:22;28.8;;;14.6;;
53674;SDS011;39574;50.534;8.500;2024-03-06T05:01:22;27.6;;;13.9;;
53674;SDS011;39574;50.534;8.500;2024-03-06T05:06:20;32.5;;;15.7;;
53674;SDS011;39574;50.534;8.500;2024-03-06T05:11:19;33.5;;;16.3;;
53674;SDS011;39574;50.534;8.500;2024-03-06T05:16:18;31.1;;;15.1;;
53674;SDS011;39574;50.534;8.500;2024-03-06T05:21:16;30.3;;;14.7;;
53674;SDS011;39574;50.534;8.500;2024-03-06T05:26:16;31.8;;;15.3;;
53674;SDS011;39574;50.534;8.500;2024-03-06T05:31:15;36.2;;;17.3;;
53674;SDS011;39574;50.534;8.500;2024-03-06T05:36:15;44.8;;;21.3;;
53674;SDS011;39574;50.534;8.500;2024-03-06T05:41:17;57.1;;;22.7;;
53674;SDS011;39574;50.534;8.500;2024-03-06T05:46:11;53.4;;;22.0;;
53674;SDS011;39574;50.534;8.500;2024-03-06T05:51:11;48.5;;;20.8;;
53674;SDS011;39574;50.534;8.500;2024-03-06T05:56:11;42.5;;;19.3;;
53674;SDS011;39574;50.534;8.500;2024-03-06T06:01:08;37.8;;;18.9;;
53674;SDS011;39574;50.534;8.500;2024-03-06T06:06:07;41.1;;;19.4;;
53674;SDS011;39574;50.534;8.500;2024-03-06T06:11:07;61.3;;;21.2;;
53674;SDS011;39574;50.534;8.500;2024-03-06T06:16:05;66.0;;;22.2;;
53674;SDS011;39574;50.534;8.500;2024-03-06T06:21:04;70.8;;;22.6;;
53674;SDS011;39574;50.534;8.500;2024-03-06T06:26:04;63.5;;;24.1;;
53674;SDS011;39574;50.534;8.500;2024-03-06T06:31:03;51.1;;;22.1;;
53674;SDS011;39574;50.534;8.500;2024-03-06T06:36:01;45.6;;;22.2;;
53674;SDS011;39574;50.534;8.500;2024-03-06T06:41:00;50.9;;;22.9;;
53674;SDS011;39574;50.534;8.500;2024-03-06T07:05:55;47.0;;;20.8;;
53674;SDS011;39574;50.534;8.500;2024-03-06T07:10:54;42.2;;;19.4;;
53674;SDS011;39574;50.534;8.500;2024-03-06T07:15:53;49.8;;;18.6;;
53674;SDS011;39574;50.534;8.500;2024-03-06T07:20:52;54.7;;;18.6;;
53674;SDS011;39574;50.534;8.500;2024-03-06T07:25:51;48.3;;;18.3;;
53674;SDS011;39574;50.534;8.500;2024-03-06T07:30:49;48.8;;;18.0;;
53674;SDS011;39574;50.534;8.500;2024-03-06T07:45:47;51.0;;;19.3;;
53674;SDS011;39574;50.534;8.500;2024-03-06T07:50:50;71.4;;;21.0;;
53674;SDS011;39574;50.534;8.500;2024-03-06T07:55:44;62.1;;;20.4;;
53674;SDS011;39574;50.534;8.500;2024-03-06T08:00:44;50.6;;;19.7;;
53674;SDS011;39574;50.534;8.500;2024-03-06T08:10:42;46.6;;;19.5;;
53674;SDS011;39574;50.534;8.500;2024-03-06T08:15:41;39.8;;;18.9;;
53674;SDS011;39574;50.534;8.500;2024-03-06T08:20:40;41.6;;;19.9;;
53674;SDS011;39574;50.534;8.500;2024-03-06T08:25:39;44.1;;;20.9;;
53674;SDS011;39574;50.534;8.500;2024-03-06T08:30:38;50.6;;;22.4;;
53674;SDS011;39574;50.534;8.500;2024-03-06T08:35:36;48.0;;;22.0;;
53674;SDS011;39574;50.534;8.500;2024-03-06T08:40:36;45.1;;;21.7;;
53674;SDS011;39574;50.534;8.500;2024-03-06T08:45:35;44.2;;;21.4;;
53674;SDS011;39574;50.534;8.500;2024-03-06T08:50:33;41.3;;;20.5;;
53674;SDS011;39574;50.534;8.500;2024-03-06T08:55:32;40.9;;;20.5;;
53674;SDS011;39574;50.534;8.500;2024-03-06T09:00:31;40.7;;;20.6;;
53674;SDS011;39574;50.534;8.500;2024-03-06T09:05:32;39.0;;;20.3;;
53674;SDS011;39574;50.534;8.500;2024-03-06T09:10:30;39.0;;;20.1;;
53674;SDS011;39574;50.534;8.500;2024-03-06T09:15:29;38.5;;;19.6;;
53674;SDS011;39574;50.534;8.500;2024-03-06T09:20:27;38.0;;;19.2;;
53674;SDS011;39574;50.534;8.500;2024-03-06T09:25:26;38.1;;;19.2;;
53674;SDS011;39574;50.534;8.500;2024-03-06T09:30:25;37.3;;;19.4;;
53674;SDS011;39574;50.534;8.500;2024-03-06T09:35:25;36.3;;;19.0;;
53674;SDS011;39574;50.534;8.500;2024-03-06T09:45:22;35.0;;;18.6;;
53674;SDS011;39574;50.534;8.500;2024-03-06T09:50:26;35.6;;;18.7;;
53674;SDS011;39574;50.534;8.500;2024-03-06T09:55:21;35.9;;;19.1;;
53674;SDS011;39574;50.534;8.500;2024-03-06T10:00:20;37.1;;;20.2;;
53674;SDS011;39574;50.534;8.500;2024-03-06T10:05:20;36.2;;;19.6;;
53674;SDS011;39574;50.534;8.500;2024-03-06T10:10:19;35.2;;;19.2;;
53674;SDS011;39574;50.534;8.500;2024-03-06T10:15:17;34.8;;;18.6;;
53674;SDS011;39574;50.534;8.500;2024-03-06T10:20:17;34.7;;;18.7;;
53674;SDS011;39574;50.534;8.500;2024-03-06T10:25:17;32.1;;;17.6;;
53674;SDS011;39574;50.534;8.500;2024-03-06T10:30:14;28.0;;;15.8;;
53674;SDS011;39574;50.534;8.500;2024-03-06T10:35:17;27.8;;;15.6;;
53674;SDS011;39574;50.534;8.500;2024-03-06T10:40:14;27.0;;;15.3;;
53674;SDS011;39574;50.534;8.500;2024-03-06T10:45:13;25.9;;;15.0;;
53674;SDS011;39574;50.534;8.500;2024-03-06T10:50:15;25.3;;;14.8;;
53674;SDS011;39574;50.534;8.500;2024-03-06T10:55:10;24.5;;;14.4;;
53674;SDS011;39574;50.534;8.500;2024-03-06T11:00:10;23.7;;;13.8;;
53674;SDS011;39574;50.534;8.500;2024-03-06T11:05:09;23.5;;;13.7;;
53674;SDS011;39574;50.534;8.500;2024-03-06T11:10:09;23.5;;;13.4;;
53674;SDS011;39574;50.534;8.500;2024-03-06T11:15:08;22.3;;;12.6;;
53674;SDS011;39574;50.534;8.500;2024-03-06T11:20:08;21.4;;;12.2;;
53674;SDS011;39574;50.534;8.500;2024-03-06T11:25:06;20.4;;;11.7;;
53674;SDS011;39574;50.534;8.500;2024-03-06T11:30:06;19.4;;;11.4;;
53674;SDS011;39574;50.534;8.500;2024-03-06T11:35:04;19.9;;;11.7;;
53674;SDS011;39574;50.534;8.500;2024-03-06T11:40:05;20.8;;;12.3;;
53674;SDS011;39574;50.534;8.500;2024-03-06T11:45:12;22.0;;;12.9;;
53674;SDS011;39574;50.534;8.500;2024-03-06T11:50:09;22.9;;;13.2;;
53674;SDS011;39574;50.534;8.500;2024-03-06T11:55:05;22.3;;;13.1;;
53674;SDS011;39574;50.534;8.500;2024-03-06T12:00:04;22.4;;;13.2;;
53674;SDS011;39574;50.534;8.500;2024-03-06T12:05:01;21.3;;;12.7;;
53674;SDS011;39574;50.534;8.500;2024-03-06T12:10:00;20.7;;;12.4;;
53674;SDS011;39574;50.534;8.500;2024-03-06T12:14:59;19.4;;;11.7;;
53674;SDS011;39574;50.534;8.500;2024-03-06T12:19:59;18.1;;;11.0;;
53674;SDS011;39574;50.534;8.500;2024-03-06T12:24:58;17.7;;;10.7;;
53674;SDS011;39574;50.534;8.500;2024-03-06T12:29:57;17.5;;;10.5;;
53674;SDS011;39574;50.534;8.500;2024-03-06T12:34:57;17.9;;;10.7;;
53674;SDS011;39574;50.534;8.500;2024-03-06T12:39:55;17.0;;;10.2;;
53674;SDS011;39574;50.534;8.500;2024-03-06T12:44:55;16.6;;;9.7;;
53674;SDS011;39574;50.534;8.500;2024-03-06T12:49:54;17.3;;;9.9;;
53674;SDS011;39574;50.534;8.500;2024-03-06T12:54:54;17.4;;;10.1;;
53674;SDS011;39574;50.534;8.500;2024-03-06T12:59:52;18.0;;;10.4;;
53674;SDS011;39574;50.534;8.500;2024-03-06T13:04:55;18.1;;;10.7;;
53674;SDS011;39574;50.534;8.500;2024-03-06T13:09:51;18.3;;;10.5;;
53674;SDS011;39574;50.534;8.500;2024-03-06T13:14:50;18.2;;;10.7;;
53674;SDS011;39574;50.534;8.500;2024-03-06T13:19:49;17.4;;;10.3;;
53674;SDS011;39574;50.534;8.500;2024-03-06T13:24:49;16.9;;;10.3;;
53674;SDS011;39574;50.534;8.500;2024-03-06T13:29:48;16.8;;;10.3;;
53674;SDS011;39574;50.534;8.500;2024-03-06T13:34:47;17.0;;;9.9;;
53674;SDS011;39574;50.534;8.500;2024-03-06T13:44:45;16.8;;;9.6;;
53674;SDS011;39574;50.534;8.500;2024-03-06T13:49:45;16.8;;;9.5;;
53674;SDS011;39574;50.534;8.500;2024-03-06T13:54:45;16.3;;;9.5;;
53674;SDS011;39574;50.534;8.500;2024-03-06T13:59:48;16.2;;;9.4;;
53674;SDS011;39574;50.534;8.500;2024-03-06T14:04:43;16.0;;;9.3;;
53674;SDS011;39574;50.534;8.500;2024-03-06T14:09:47;15.6;;;9.0;;
53674;SDS011;39574;50.534;8.500;2024-03-06T14:14:42;16.1;;;9.8;;
53674;SDS011;39574;50.534;8.500;2024-03-06T14:19:41;16.2;;;9.8;;
53674;SDS011;39574;50.534;8.500;2024-03-06T14:24:45;16.4;;;10.1;;
53674;SDS011;39574;50.534;8.500;2024-03-06T14:29:40;16.0;;;9.8;;
53674;SDS011;39574;50.534;8.500;2024-03-06T14:34:40;15.8;;;9.5;;
53674;SDS011;39574;50.534;8.500;2024-03-06T14:39:39;15.9;;;9.2;;
53674;SDS011;39574;50.534;8.500;2024-03-06T14:44:38;15.3;;;8.9;;
53674;SDS011;39574;50.534;8.500;2024-03-06T14:49:42;15.2;;;8.9;;
53674;SDS011;39574;50.534;8.500;2024-03-06T14:54:37;15.5;;;9.0;;
53674;SDS011;39574;50.534;8.500;2024-03-06T14:59:36;15.3;;;9.0;;
53674;SDS011;39574;50.534;8.500;2024-03-06T15:04:35;15.8;;;9.2;;
53674;SDS011;39574;50.534;8.500;2024-03-06T15:09:35;15.6;;;8.9;;
53674;SDS011;39574;50.534;8.500;2024-03-06T15:14:34;14.8;;;8.4;;
53674;SDS011;39574;50.534;8.500;2024-03-06T15:19:34;14.3;;;8.3;;
53674;SDS011;39574;50.534;8.500;2024-03-06T15:24:33;14.5;;;8.5;;
53674;SDS011;39574;50.534;8.500;2024-03-06T15:29:35;14.8;;;8.8;;
53674;SDS011;39574;50.534;8.500;2024-03-06T15:34:32;16.3;;;9.3;;
53674;SDS011;39574;50.534;8.500;2024-03-06T15:39:31;17.3;;;9.7;;
53674;SDS011;39574;50.534;8.500;2024-03-06T15:44:30;17.9;;;10.1;;
53674;SDS011;39574;50.534;8.500;2024-03-06T15:49:30;18.6;;;10.6;;
53674;SDS011;39574;50.534;8.500;2024-03-06T15:54:29;19.8;;;11.2;;
53674;SDS011;39574;50.534;8.500;2024-03-06T15:59:28;20.2;;;11.4;;
53674;SDS011;39574;50.534;8.500;2024-03-06T16:04:27;20.5;;;11.5;;
53674;SDS011;39574;50.534;8.500;2024-03-06T16:09:26;21.2;;;11.6;;
53674;SDS011;39574;50.534;8.500;2024-03-06T16:14:26;22.3;;;12.3;;
53674;SDS011;39574;50.534;8.500;2024-03-06T16:19:26;22.6;;;12.5;;
53674;SDS011;39574;50.534;8.500;2024-03-06T16:24:24;22.9;;;12.4;;
53674;SDS011;39574;50.534;8.500;2024-03-06T16:29:23;23.1;;;12.8;;
53674;SDS011;39574;50.534;8.500;2024-03-06T16:34:23;24.4;;;13.6;;
53674;SDS011;39574;50.534;8.500;2024-03-06T16:39:22;26.3;;;14.5;;
53674;SDS011;39574;50.534;8.500;2024-03-06T16:44:21;26.8;;;14.6;;
53674;SDS011;39574;50.534;8.500;2024-03-06T16:49:20;29.6;;;15.4;;
53674;SDS011;39574;50.534;8.500;2024-03-06T16:54:19;31.5;;;16.4;;
53674;SDS011;39574;50.534;8.500;2024-03-06T16:59:18;32.1;;;16.9;;
53674;SDS011;39574;50.534;8.500;2024-03-06T17:04:19;33.5;;;17.5;;
53674;SDS011;39574;50.534;8.500;2024-03-06T17:09:17;33.5;;;17.5;;
53674;SDS011;39574;50.534;8.500;2024-03-06T17:14:16;32.3;;;16.9;;
53674;SDS011;39574;50.534;8.500;2024-03-06T17:19:15;31.6;;;16.4;;
53674;SDS011;39574;50.534;8.500;2024-03-06T17:24:14;31.2;;;15.8;;
53674;SDS011;39574;50.534;8.500;2024-03-06T17:29:14;30.2;;;15.2;;
53674;SDS011;39574;50.534;8.500;2024-03-06T17:39:12;29.6;;;15.3;;
53674;SDS011;39574;50.534;8.500;2024-03-06T17:44:11;28.2;;;14.9;;
53674;SDS011;39574;50.534;8.500;2024-03-06T17:49:10;27.8;;;15.0;;
53674;SDS011;39574;50.534;8.500;2024-03-06T17:54:09;28.7;;;14.9;;
53674;SDS011;39574;50.534;8.500;2024-03-06T17:59:08;28.7;;;15.2;;
53674;SDS011;39574;50.534;8.500;2024-03-06T18:04:11;28.8;;;15.2;;
53674;SDS011;39574;50.534;8.500;2024-03-06T18:09:06;28.9;;;15.1;;
53674;SDS011;39574;50.534;8.500;2024-03-06T18:14:05;29.9;;;15.6;;
53674;SDS011;39574;50.534;8.500;2024-03-06T18:19:05;31.4;;;16.2;;
53674;SDS011;39574;50.534;8.500;2024-03-06T18:24:05;32.7;;;16.5;;
53674;SDS011;39574;50.534;8.500;2024-03-06T18:29:03;32.0;;;16.6;;
53674;SDS011;39574;50.534;8.500;2024-03-06T18:34:02;33.0;;;17.7;;
53674;SDS011;39574;50.534;8.500;2024-03-06T18:39:00;33.6;;;18.4;;
53674;SDS011;39574;50.534;8.500;2024-03-06T18:43:59;35.0;;;19.4;;
53674;SDS011;39574;50.534;8.500;2024-03-06T18:48:59;35.5;;;19.6;;
53674;SDS011;39574;50.534;8.500;2024-03-06T18:53:58;35.9;;;19.8;;
53674;SDS011;39574;50.534;8.500;2024-03-06T18:58:57;37.5;;;20.7;;
53674;SDS011;39574;50.534;8.500;2024-03-06T19:03:56;37.9;;;20.9;;
53674;SDS011;39574;50.534;8.500;2024-03-06T19:08:56;39.9;;;22.1;;
53674;SDS011;39574;50.534;8.500;2024-03-06T19:13:54;39.3;;;21.5;;
53674;SDS011;39574;50.534;8.500;2024-03-06T19:18:54;37.8;;;20.8;;
53674;SDS011;39574;50.534;8.500;2024-03-06T19:23:57;37.8;;;20.8;;
53674;SDS011;39574;50.534;8.500;2024-03-06T19:28:52;39.9;;;21.5;;
53674;SDS011;39574;50.534;8.500;2024-03-06T19:33:50;39.8;;;21.4;;
53674;SDS011;39574;50.534;8.500;2024-03-06T19:38:50;38.6;;;21.4;;
53674;SDS011;39574;50.534;8.500;2024-03-06T19:43:48;36.8;;;20.9;;
53674;SDS011;39574;50.534;8.500;2024-03-06T19:48:48;37.4;;;21.3;;
53674;SDS011;39574;50.534;8.500;2024-03-06T19:53:47;41.4;;;23.0;;
53674;SDS011;39574;50.534;8.500;2024-03-06T19:58:45;43.1;;;22.9;;
53674;SDS011;39574;50.534;8.500;2024-03-06T20:03:46;41.8;;;22.2;;
53674;SDS011;39574;50.534;8.500;2024-03-06T20:08:44;40.4;;;21.3;;
53674;SDS011;39574;50.534;8.500;2024-03-06T20:13:43;39.1;;;20.9;;
53674;SDS011;39574;50.534;8.500;2024-03-06T20:18:42;37.2;;;20.5;;
53674;SDS011;39574;50.534;8.500;2024-03-06T20:23:41;35.5;;;20.1;;
53674;SDS011;39574;50.534;8.500;2024-03-06T20:28:40;35.1;;;19.7;;
53674;SDS011;39574;50.534;8.500;2024-03-06T20:33:39;36.3;;;20.0;;
53674;SDS011;39574;50.534;8.500;2024-03-06T20:38:38;34.7;;;19.5;;
53674;SDS011;39574;50.534;8.500;2024-03-06T20:43:37;33.9;;;18.9;;
53674;SDS011;39574;50.534;8.500;2024-03-06T20:48:36;32.3;;;18.2;;
53674;SDS011;39574;50.534;8.500;2024-03-06T20:53:35;37.9;;;19.6;;
53674;SDS011;39574;50.534;8.500;2024-03-06T20:58:35;37.7;;;19.6;;
53674;SDS011;39574;50.534;8.500;2024-03-06T21:03:33;35.3;;;18.9;;
53674;SDS011;39574;50.534;8.500;2024-03-06T21:08:37;34.1;;;18.4;;
53674;SDS011;39574;50.534;8.500;2024-03-06T21:18:30;46.4;;;23.8;;
53674;SDS011;39574;50.534;8.500;2024-03-06T21:23:29;49.2;;;25.6;;
53674;SDS011;39574;50.534;8.500;2024-03-06T21:28:29;51.8;;;26.7;;
53674;SDS011;39574;50.534;8.500;2024-03-06T21:33:28;49.1;;;26.6;;
53674;SDS011;39574;50.534;8.500;2024-03-06T21:38:27;45.4;;;25.1;;
53674;SDS011;39574;50.534;8.500;2024-03-06T21:43:30;44.0;;;24.1;;
53674;SDS011;39574;50.534;8.500;2024-03-06T21:48:25;42.6;;;23.3;;
53674;SDS011;39574;50.534;8.500;2024-03-06T21:53:24;41.5;;;22.8;;
53674;SDS011;39574;50.534;8.500;2024-03-06T21:58:27;40.3;;;22.4;;
53674;SDS011;39574;50.534;8.500;2024-03-06T22:03:22;39.8;;;22.0;;
53674;SDS011;39574;50.534;8.500;2024-03-06T22:08:21;43.6;;;23.5;;
53674;SDS011;39574;50.534;8.500;2024-03-06T22:13:20;44.0;;;23.4;;
53674;SDS011;39574;50.534;8.500;2024-03-06T22:18:19;44.2;;;23.3;;
53674;SDS011;39574;50.534;8.500;2024-03-06T22:28:18;41.2;;;22.1;;
53674;SDS011;39574;50.534;8.500;2024-03-06T22:33:16;39.2;;;21.1;;
53674;SDS011;39574;50.534;8.500;2024-03-06T22:38:16;37.4;;;20.3;;
53674;SDS011;39574;50.534;8.500;2024-03-06T22:43:15;36.9;;;20.0;;
53674;SDS011;39574;50.534;8.500;2024-03-06T22:48:14;39.3;;;20.3;;
53674;SDS011;39574;50.534;8.500;2024-03-06T22:53:13;38.8;;;20.3;;
53674;SDS011;39574;50.534;8.500;2024-03-06T22:58:12;36.6;;;19.7;;
53674;SDS011;39574;50.534;8.500;2024-03-06T23:03:11;35.2;;;19.1;;
53674;SDS011;39574;50.534;8.500;2024-03-06T23:08:09;37.2;;;19.8;;
53674;SDS011;39574;50.534;8.500;2024-03-06T23:13:13;41.9;;;21.6;;
53674;SDS011;39574;50.534;8.500;2024-03-06T23:18:08;40.1;;;21.1;;
53674;SDS011;39574;50.534;8.500;2024-03-06T23:23:06;41.3;;;21.9;;
53674;SDS011;39574;50.534;8.500;2024-03-06T23:28:05;39.5;;;20.8;;
53674;SDS011;39574;50.534;8.500;2024-03-06T23:33:06;38.7;;;20.8;;
53674;SDS011;39574;50.534;8.500;2024-03-06T23:38:03;39.1;;;20.6;;
53674;SDS011;39574;50.534;8.500;2024-03-06T23:43:03;37.6;;;20.2;;
53674;SDS011;39574;50.534;8.500;2024-03-06T23:48:02;39.8;;;21.3;;
53674;SDS011;39574;50.534;8.500;2024-03-06T23:53:05;40.0;;;21.7;;
53674;SDS011;39574;50.534;8.500;2024-03-06T23:58:00;41.7;;;22.4;;
